»·PEaware :: N525SK KSUN-KBOI

N525SK :: KSUN-KBOI

FLIGHT INFORMATION

Flight Status: Arrived
Operator: Privately registered:
United States
More flights under this callsign
Pilot: Austin M. (5128)
Aircraft: BEECH AIRCRAFT SUPER KING AIR COMMUTER
(BE20)
More flights by this aircraft type
Origin: KSUN Friedman Meml
United States
Destination: KBOI Boise Air Terminal/Gowen
United States
More flights between these airports :: More routes between these airports
Route: +HLE DERSO V500 AROWS
File this flight plan on PilotEdge
Remarks:
Altitude:
(Current/Filed)
180ft
Speed:
(Current/Filed)
260kts
Departed: 25-Feb-18 10:02 AM
Arrived: 25-Feb-18 10:44 AM
Distance/Time
Traveled:
84nm/0:41
Distance/Time
To Go:
Arrived

Flight Plot

Page will automatically refresh every two minutes.

Flight plan parsing failed; only flown route is shown


Map Options




Map Legend


Flown Route
Filed Route
Departure Airport
Arrival Airport
Navaid (VOR, NDB)
Fix

Horizontal Profiles

Position Reports

Time Latitude Longitude Heading Altitude Ground
Speed
25-Feb-18 09:58 43.507174 -114.301068 60 5301ft 0kts
25-Feb-18 09:59 43.507174 -114.301068 60 5301ft 0kts
25-Feb-18 10:00 43.507174 -114.301068 60 5301ft 0kts
25-Feb-18 10:01 43.507174 -114.301068 60 5301ft 0kts
25-Feb-18 10:02 43.507174 -114.301068 60 5301ft 0kts
25-Feb-18 10:03 43.507310 -114.300802 28 5301ft 6kts
25-Feb-18 10:04 43.509115 -114.302269 323 5307ft 2kts
25-Feb-18 10:05 43.510488 -114.303570 326 5310ft 12kts
25-Feb-18 10:06 43.511316 -114.304382 326 5311ft 0kts
25-Feb-18 10:07 43.511316 -114.304382 326 5311ft 0kts
25-Feb-18 10:08 43.511941 -114.304138 48 5312ft 7kts
25-Feb-18 10:09 43.496144 -114.288218 149 5696ft 153kts
25-Feb-18 10:10 43.451197 -114.278952 178 6980ft 195kts
25-Feb-18 10:11 43.397350 -114.265745 171 8354ft 206kts
25-Feb-18 10:12 43.341184 -114.251134 201 9720ft 206kts
25-Feb-18 10:13 43.331895 -114.313461 277 11147ft 183kts
25-Feb-18 10:14 43.335647 -114.383325 275 12334ft 188kts
25-Feb-18 10:15 43.338462 -114.452415 275 13490ft 185kts
25-Feb-18 10:16 43.341095 -114.520849 276 14638ft 191kts
25-Feb-18 10:17 43.343681 -114.591424 276 15788ft 191kts
25-Feb-18 10:18 43.346033 -114.657193 276 16865ft 188kts
25-Feb-18 10:19 43.348371 -114.721869 276 17847ft 195kts
25-Feb-18 10:20 43.351140 -114.798160 276 17994ft 221kts
25-Feb-18 10:21 43.353985 -114.881866 276 17990ft 233kts
25-Feb-18 10:22 43.356780 -114.966071 276 17989ft 235kts
25-Feb-18 10:23 43.359459 -115.047437 275 18020ft 233kts
25-Feb-18 10:24 43.362168 -115.128057 276 17967ft 235kts
25-Feb-18 10:25 43.376154 -115.204528 285 17715ft 233kts
25-Feb-18 10:26 43.389507 -115.274892 285 17261ft 234kts
25-Feb-18 10:27 43.402417 -115.343206 285 16479ft 231kts
25-Feb-18 10:28 43.417368 -115.422601 284 15506ft 230kts
25-Feb-18 10:29 43.431822 -115.500177 284 14633ft 230kts
25-Feb-18 10:30 43.445682 -115.574994 284 13758ft 228kts
25-Feb-18 10:31 43.459501 -115.650170 284 12746ft 227kts
25-Feb-18 10:32 43.473079 -115.723280 283 11570ft 225kts
25-Feb-18 10:33 43.486842 -115.797485 281 10159ft 225kts
25-Feb-18 10:34 43.500737 -115.873145 281 8760ft 226kts
25-Feb-18 10:35 43.513558 -115.943208 280 8007ft 224kts
25-Feb-18 10:36 43.524694 -116.011862 263 7888ft 227kts
25-Feb-18 10:37 43.513043 -116.085492 255 7784ft 221kts
25-Feb-18 10:38 43.500157 -116.163219 254 7014ft 218kts
25-Feb-18 10:39 43.487431 -116.241852 254 6633ft 220kts
25-Feb-18 10:40 43.477233 -116.305866 254 5836ft 213kts
25-Feb-18 10:41 43.464156 -116.390775 254 5013ft 203kts
25-Feb-18 10:42 43.488771 -116.435271 343 5011ft 198kts
25-Feb-18 10:43 43.528393 -116.450297 344 5010ft 194kts
25-Feb-18 10:44 43.582481 -116.470700 344 4994ft 194kts
25-Feb-18 10:45 43.618008 -116.439656 89 4522ft 184kts
25-Feb-18 10:46 43.617883 -116.400233 95 4503ft 124kts
25-Feb-18 10:47 43.611149 -116.364966 118 4508ft 126kts
25-Feb-18 10:48 43.598433 -116.327057 118 4142ft 120kts
25-Feb-18 10:49 43.586308 -116.290902 116 3600ft 117kts
25-Feb-18 10:50 43.573231 -116.252085 116 3011ft 119kts
25-Feb-18 10:51 43.566009 -116.233388 171 2832ft 11kts

Navigation Log

Ident Type
Flight plan parsing failed, navigation log unavailable